الصفحة الرئيسية
صور السواتل توقعات الطقس لمدة 10 يوممناخالطقس البحري أعاصير برق مطارأسئلة وأجوبة الرسائل الإخبارية نبذة
طقس : أوروبا أفريقيا أمريكا الشمالية أمريكا الجنوبية آسيا أستراليا-أوقيانوسيا أخرى
لغات جهة اتصال

مدينة همدان, إيران

دائرة عرض: 34-52-05N, خط طول: 048-33-08E, ارتفاع: 1757 متر


METAR: OIHH 071100Z 19006KT 9999 FEW035CB BKN040 33/05 Q1014
TAF: مفقودة

زمن: 17:41 (13:11 UTC)

مراقبة الطقس الحالي

تاريخ ووقت الإصدار 2ساعات و 11 دقيقة قبل الساعة 11:00UTC
ريح 6 عقدة من الجنوب
درجة الحرارة 33°درجة مئوية
الرطوبة 17%
ضغط 1014 hPa
الرؤية 10 كم أو أكثر
غيوم قليلة على ارتفاع 3500 قدم, مزنة ركامية.
غيوم مفككة على ارتفاع 4000 قدم

تغيير وحدة
المعلومات الواردة في هذا الموقع يخضع لـإخلاء مسؤولية
طقس : أوروبا أفريقيا أمريكا الشمالية أمريكا الجنوبية آسيا أستراليا-أوقيانوسيا أخرى
صور السواتل توقعات الطقس لمدة 10 يوممناخالطقس البحري أعاصير برق مطارأسئلة وأجوبة لغات جهة اتصال الرسائل الإخبارية نبذة